sensor_id;sensor_type;location;lat;lon;timestamp;pressure;altitude;pressure_sealevel;temperature;humidity
29907;BME280;16776;50.958;10.994;2023-03-02T00:00:31;99239.38;;;-0.64;80.55
29907;BME280;16776;50.958;10.994;2023-03-02T00:02:58;99240.19;;;-0.67;80.49
29907;BME280;16776;50.958;10.994;2023-03-02T00:05:26;99223.84;;;-0.78;80.73
29907;BME280;16776;50.958;10.994;2023-03-02T00:07:53;99239.16;;;-0.73;80.32
29907;BME280;16776;50.958;10.994;2023-03-02T00:10:21;99228.06;;;-0.77;80.92
29907;BME280;16776;50.958;10.994;2023-03-02T00:12:48;99230.47;;;-0.81;80.72
29907;BME280;16776;50.958;10.994;2023-03-02T00:15:15;99230.34;;;-0.86;80.94
29907;BME280;16776;50.958;10.994;2023-03-02T00:17:42;99232.78;;;-0.89;80.88
29907;BME280;16776;50.958;10.994;2023-03-02T00:20:09;99230.19;;;-0.92;80.50
29907;BME280;16776;50.958;10.994;2023-03-02T00:22:36;99238.47;;;-0.96;80.71
29907;BME280;16776;50.958;10.994;2023-03-02T00:25:04;99232.44;;;-1.01;80.73
29907;BME280;16776;50.958;10.994;2023-03-02T00:27:32;99225.59;;;-1.05;80.92
29907;BME280;16776;50.958;10.994;2023-03-02T00:29:59;99211.97;;;-1.09;80.88
29907;BME280;16776;50.958;10.994;2023-03-02T00:32:28;99210.25;;;-1.11;80.95
29907;BME280;16776;50.958;10.994;2023-03-02T00:34:54;99208.47;;;-1.14;81.12
29907;BME280;16776;50.958;10.994;2023-03-02T00:37:22;99212.66;;;-1.14;80.71
29907;BME280;16776;50.958;10.994;2023-03-02T00:39:52;99215.19;;;-1.14;80.82
29907;BME280;16776;50.958;10.994;2023-03-02T00:42:18;99221.78;;;-1.19;80.92
29907;BME280;16776;50.958;10.994;2023-03-02T00:44:46;99215.94;;;-1.18;81.47
29907;BME280;16776;50.958;10.994;2023-03-02T00:47:13;99209.91;;;-1.23;80.98
29907;BME280;16776;50.958;10.994;2023-03-02T00:49:39;99217.41;;;-1.25;80.74
29907;BME280;16776;50.958;10.994;2023-03-02T00:52:09;99203.13;;;-1.24;80.78
29907;BME280;16776;50.958;10.994;2023-03-02T00:54:35;99205.53;;;-1.29;81.21
29907;BME280;16776;50.958;10.994;2023-03-02T00:57:02;99207.88;;;-1.33;80.80
29907;BME280;16776;50.958;10.994;2023-03-02T00:59:29;99209.53;;;-1.35;80.89
29907;BME280;16776;50.958;10.994;2023-03-02T01:01:58;99203.50;;;-1.39;81.07
29907;BME280;16776;50.958;10.994;2023-03-02T01:04:26;99205.81;;;-1.47;80.17
29907;BME280;16776;50.958;10.994;2023-03-02T01:06:55;99208.16;;;-1.53;80.92
29907;BME280;16776;50.958;10.994;2023-03-02T01:09:22;99208.00;;;-1.57;80.47
29907;BME280;16776;50.958;10.994;2023-03-02T01:11:48;99208.69;;;-1.63;80.89
29907;BME280;16776;50.958;10.994;2023-03-02T01:14:15;99205.97;;;-1.69;80.82
29907;BME280;16776;50.958;10.994;2023-03-02T01:16:42;99207.50;;;-1.74;80.94
29907;BME280;16776;50.958;10.994;2023-03-02T01:19:10;99197.34;;;-1.75;80.88
29907;BME280;16776;50.958;10.994;2023-03-02T01:21:36;99198.88;;;-1.81;80.63
29907;BME280;16776;50.958;10.994;2023-03-02T01:24:03;99192.09;;;-1.82;81.38
29907;BME280;16776;50.958;10.994;2023-03-02T01:26:30;99200.47;;;-1.83;81.53
29907;BME280;16776;50.958;10.994;2023-03-02T01:28:57;99188.72;;;-1.82;81.52
29907;BME280;16776;50.958;10.994;2023-03-02T01:31:24;99193.81;;;-1.81;81.20
29907;BME280;16776;50.958;10.994;2023-03-02T01:33:51;99190.47;;;-1.80;81.79
29907;BME280;16776;50.958;10.994;2023-03-02T01:36:20;99181.34;;;-1.76;81.37
29907;BME280;16776;50.958;10.994;2023-03-02T01:38:48;99142.72;;;-2.00;81.61
29907;BME280;16776;50.958;10.994;2023-03-02T01:41:20;99180.63;;;-1.72;81.38
29907;BME280;16776;50.958;10.994;2023-03-02T01:43:46;99188.25;;;-1.70;81.35
29907;BME280;16776;50.958;10.994;2023-03-02T01:46:15;99184.13;;;-1.67;81.90
29907;BME280;16776;50.958;10.994;2023-03-02T01:48:45;99188.34;;;-1.67;81.61
29907;BME280;16776;50.958;10.994;2023-03-02T01:51:14;99192.53;;;-1.68;81.24
29907;BME280;16776;50.958;10.994;2023-03-02T01:53:44;99192.56;;;-1.66;81.75
29907;BME280;16776;50.958;10.994;2023-03-02T01:56:13;99195.94;;;-1.67;81.21
29907;BME280;16776;50.958;10.994;2023-03-02T01:58:41;99193.34;;;-1.69;81.55
29907;BME280;16776;50.958;10.994;2023-03-02T02:01:08;99194.16;;;-1.70;81.34
29907;BME280;16776;50.958;10.994;2023-03-02T02:03:40;99184.84;;;-1.71;81.21
29907;BME280;16776;50.958;10.994;2023-03-02T02:06:13;99180.63;;;-1.72;81.29
29907;BME280;16776;50.958;10.994;2023-03-02T02:08:43;99186.38;;;-1.76;81.00
29907;BME280;16776;50.958;10.994;2023-03-02T02:11:11;99185.41;;;-1.81;81.02
29907;BME280;16776;50.958;10.994;2023-03-02T02:13:38;99185.19;;;-1.87;80.72
29907;BME280;16776;50.958;10.994;2023-03-02T02:16:05;99168.94;;;-1.95;81.06
29907;BME280;16776;50.958;10.994;2023-03-02T02:18:33;99175.53;;;-2.00;80.63
29907;BME280;16776;50.958;10.994;2023-03-02T02:21:01;99176.22;;;-2.04;80.58
29907;BME280;16776;50.958;10.994;2023-03-02T02:23:33;99168.63;;;-2.06;81.12
29907;BME280;16776;50.958;10.994;2023-03-02T02:26:15;99162.72;;;-2.06;81.68
29907;BME280;16776;50.958;10.994;2023-03-02T02:28:49;99161.59;;;-2.14;81.10
29907;BME280;16776;50.958;10.994;2023-03-02T02:31:25;99161.50;;;-2.18;81.04
29907;BME280;16776;50.958;10.994;2023-03-02T02:33:57;99158.94;;;-2.19;80.74
29907;BME280;16776;50.958;10.994;2023-03-02T02:36:28;99153.78;;;-2.22;81.34
29907;BME280;16776;50.958;10.994;2023-03-02T02:39:01;99151.25;;;-2.22;81.30
29907;BME280;16776;50.958;10.994;2023-03-02T02:41:34;99152.91;;;-2.23;81.11
29907;BME280;16776;50.958;10.994;2023-03-02T02:44:01;99149.47;;;-2.26;81.59
29907;BME280;16776;50.958;10.994;2023-03-02T02:46:28;99147.69;;;-2.29;80.97
29907;BME280;16776;50.958;10.994;2023-03-02T02:48:55;99143.50;;;-2.28;81.49
29907;BME280;16776;50.958;10.994;2023-03-02T02:51:26;99150.25;;;-2.27;81.68
29907;BME280;16776;50.958;10.994;2023-03-02T02:53:56;99147.63;;;-2.30;81.46
29907;BME280;16776;50.958;10.994;2023-03-02T02:56:25;99145.00;;;-2.33;81.27
29907;BME280;16776;50.958;10.994;2023-03-02T02:58:55;99137.31;;;-2.38;81.62
29907;BME280;16776;50.958;10.994;2023-03-02T03:01:25;99151.59;;;-2.38;80.82
29907;BME280;16776;50.958;10.994;2023-03-02T03:03:53;99137.19;;;-2.41;81.11
29907;BME280;16776;50.958;10.994;2023-03-02T03:06:23;99137.94;;;-2.43;81.04
29907;BME280;16776;50.958;10.994;2023-03-02T03:08:58;99144.63;;;-2.44;81.13
29907;BME280;16776;50.958;10.994;2023-03-02T03:11:27;99155.34;;;-2.51;81.03
29907;BME280;16776;50.958;10.994;2023-03-02T03:14:00;99150.94;;;-2.57;80.76
29907;BME280;16776;50.958;10.994;2023-03-02T03:16:29;99149.78;;;-2.66;80.34
29907;BME280;16776;50.958;10.994;2023-03-02T03:18:59;99142.06;;;-2.71;80.77
29907;BME280;16776;50.958;10.994;2023-03-02T03:21:27;99149.44;;;-2.77;81.04
29907;BME280;16776;50.958;10.994;2023-03-02T03:23:53;99150.97;;;-2.80;81.10
29907;BME280;16776;50.958;10.994;2023-03-02T03:26:20;99157.63;;;-2.82;80.73
29907;BME280;16776;50.958;10.994;2023-03-02T03:28:46;99155.88;;;-2.85;80.87
29907;BME280;16776;50.958;10.994;2023-03-02T03:31:14;99162.56;;;-2.85;81.48
29907;BME280;16776;50.958;10.994;2023-03-02T03:33:41;99162.44;;;-2.88;81.42
29907;BME280;16776;50.958;10.994;2023-03-02T03:36:08;99164.13;;;-2.89;81.73
29907;BME280;16776;50.958;10.994;2023-03-02T03:38:35;99153.19;;;-2.89;81.41
29907;BME280;16776;50.958;10.994;2023-03-02T03:41:01;99153.19;;;-2.89;81.51
29907;BME280;16776;50.958;10.994;2023-03-02T03:43:28;99147.28;;;-2.90;81.60
29907;BME280;16776;50.958;10.994;2023-03-02T03:45:54;99148.94;;;-2.90;81.59
29907;BME280;16776;50.958;10.994;2023-03-02T03:48:22;99152.34;;;-2.88;81.81
29907;BME280;16776;50.958;10.994;2023-03-02T03:50:49;99145.63;;;-2.89;81.43
29907;BME280;16776;50.958;10.994;2023-03-02T03:53:18;99144.00;;;-2.87;81.58
29907;BME280;16776;50.958;10.994;2023-03-02T03:55:45;99147.44;;;-2.85;81.84
29907;BME280;16776;50.958;10.994;2023-03-02T03:58:12;99141.59;;;-2.84;81.64
29907;BME280;16776;50.958;10.994;2023-03-02T04:00:38;99140.81;;;-2.83;81.40
29907;BME280;16776;50.958;10.994;2023-03-02T04:03:05;99140.03;;;-2.81;81.60
29907;BME280;16776;50.958;10.994;2023-03-02T04:05:33;99135.09;;;-2.78;81.46
29907;BME280;16776;50.958;10.994;2023-03-02T04:08:00;99090.50;;;-3.04;81.46
29907;BME280;16776;50.958;10.994;2023-03-02T04:10:27;99130.94;;;-2.77;82.05
29907;BME280;16776;50.958;10.994;2023-03-02T04:12:54;99125.75;;;-2.80;81.84
29907;BME280;16776;50.958;10.994;2023-03-02T04:15:21;99130.06;;;-2.78;81.30
29907;BME280;16776;50.958;10.994;2023-03-02T04:17:48;99123.31;;;-2.79;81.85
29907;BME280;16776;50.958;10.994;2023-03-02T04:20:16;99129.06;;;-2.83;81.50
29907;BME280;16776;50.958;10.994;2023-03-02T04:22:46;99134.25;;;-2.78;81.61
29907;BME280;16776;50.958;10.994;2023-03-02T04:25:18;99135.75;;;-2.83;81.58
29907;BME280;16776;50.958;10.994;2023-03-02T04:27:45;99138.06;;;-2.89;81.00
29907;BME280;16776;50.958;10.994;2023-03-02T04:30:13;99134.50;;;-2.94;80.75
29907;BME280;16776;50.958;10.994;2023-03-02T04:32:40;99124.81;;;-3.08;80.85
29907;BME280;16776;50.958;10.994;2023-03-02T04:35:09;99124.66;;;-3.12;80.75
29907;BME280;16776;50.958;10.994;2023-03-02T04:37:35;99139.09;;;-3.08;81.21
29907;BME280;16776;50.958;10.994;2023-03-02T04:40:04;99133.06;;;-3.12;81.14
29907;BME280;16776;50.958;10.994;2023-03-02T04:42:31;99143.06;;;-3.15;81.04
29907;BME280;16776;50.958;10.994;2023-03-02T04:44:58;99145.44;;;-3.18;80.82
29907;BME280;16776;50.958;10.994;2023-03-02T04:47:27;99147.84;;;-3.21;81.21
29907;BME280;16776;50.958;10.994;2023-03-02T04:49:54;99140.19;;;-3.24;80.83
29907;BME280;16776;50.958;10.994;2023-03-02T04:52:21;99146.03;;;-3.25;81.44
29907;BME280;16776;50.958;10.994;2023-03-02T04:54:49;99150.13;;;-3.27;81.16
29907;BME280;16776;50.958;10.994;2023-03-02T04:57:18;99146.72;;;-3.29;81.37
29907;BME280;16776;50.958;10.994;2023-03-02T04:59:44;99154.16;;;-3.32;80.82
29907;BME280;16776;50.958;10.994;2023-03-02T05:02:11;99152.44;;;-3.33;81.20
29907;BME280;16776;50.958;10.994;2023-03-02T05:04:38;99158.16;;;-3.37;81.26
29907;BME280;16776;50.958;10.994;2023-03-02T05:07:06;99148.97;;;-3.36;81.17
29907;BME280;16776;50.958;10.994;2023-03-02T05:09:33;99155.59;;;-3.39;81.14
29907;BME280;16776;50.958;10.994;2023-03-02T05:12:00;99140.09;;;-3.49;80.92
29907;BME280;16776;50.958;10.994;2023-03-02T05:14:28;99156.38;;;-3.40;81.10
29907;BME280;16776;50.958;10.994;2023-03-02T05:16:56;99147.88;;;-3.43;81.09
29907;BME280;16776;50.958;10.994;2023-03-02T05:19:23;99136.56;;;-3.54;80.88
29907;BME280;16776;50.958;10.994;2023-03-02T05:21:49;99151.88;;;-3.48;81.87
29907;BME280;16776;50.958;10.994;2023-03-02T05:24:21;99158.22;;;-3.35;85.69
29907;BME280;16776;50.958;10.994;2023-03-02T05:26:50;99123.50;;;-3.20;87.40
29907;BME280;16776;50.958;10.994;2023-03-02T05:29:17;99154.81;;;-2.66;87.54
29907;BME280;16776;50.958;10.994;2023-03-02T05:31:46;99151.59;;;-2.38;85.80
29907;BME280;16776;50.958;10.994;2023-03-02T05:34:14;99154.75;;;-2.19;84.43
29907;BME280;16776;50.958;10.994;2023-03-02T05:36:42;99151.59;;;-2.11;83.79
29907;BME280;16776;50.958;10.994;2023-03-02T05:39:09;99159.28;;;-2.08;83.66
29907;BME280;16776;50.958;10.994;2023-03-02T05:41:37;99156.69;;;-2.10;83.14
29907;BME280;16776;50.958;10.994;2023-03-02T05:44:05;99159.81;;;-2.17;82.64
29907;BME280;16776;50.958;10.994;2023-03-02T05:46:33;99157.97;;;-2.23;81.68
29907;BME280;16776;50.958;10.994;2023-03-02T05:49:01;99156.81;;;-2.32;81.38
29907;BME280;16776;50.958;10.994;2023-03-02T05:51:28;99165.69;;;-2.43;81.29
29907;BME280;16776;50.958;10.994;2023-03-02T05:53:54;99168.66;;;-2.55;81.62
29907;BME280;16776;50.958;10.994;2023-03-02T05:56:21;99159.88;;;-2.66;81.48
29907;BME280;16776;50.958;10.994;2023-03-02T05:58:48;99169.53;;;-2.78;80.72
29907;BME280;16776;50.958;10.994;2023-03-02T06:01:14;99167.44;;;-2.90;80.91
29907;BME280;16776;50.958;10.994;2023-03-02T06:03:41;99166.25;;;-3.00;81.26
29907;BME280;16776;50.958;10.994;2023-03-02T06:06:09;99166.81;;;-3.08;81.13
29907;BME280;16776;50.958;10.994;2023-03-02T06:08:38;99171.38;;;-3.20;81.08
29907;BME280;16776;50.958;10.994;2023-03-02T06:11:06;99171.72;;;-3.33;81.38
29907;BME280;16776;50.958;10.994;2023-03-02T06:13:33;99175.06;;;-3.34;81.44
29907;BME280;16776;50.958;10.994;2023-03-02T06:15:59;99173.97;;;-3.41;81.32
29907;BME280;16776;50.958;10.994;2023-03-02T06:18:26;99172.19;;;-3.44;81.73
29907;BME280;16776;50.958;10.994;2023-03-02T06:20:52;99184.84;;;-3.42;81.72
29907;BME280;16776;50.958;10.994;2023-03-02T06:23:21;99183.28;;;-3.39;81.75
29907;BME280;16776;50.958;10.994;2023-03-02T06:25:47;99183.41;;;-3.35;82.01
29907;BME280;16776;50.958;10.994;2023-03-02T06:28:14;99191.13;;;-3.31;81.85
29907;BME280;16776;50.958;10.994;2023-03-02T06:30:43;99190.44;;;-3.27;81.73
29907;BME280;16776;50.958;10.994;2023-03-02T06:33:10;99186.31;;;-3.25;82.01
29907;BME280;16776;50.958;10.994;2023-03-02T06:35:36;99178.88;;;-3.22;82.50
29907;BME280;16776;50.958;10.994;2023-03-02T06:38:03;99193.31;;;-3.18;82.71
29907;BME280;16776;50.958;10.994;2023-03-02T06:40:31;99187.63;;;-3.12;82.96
29907;BME280;16776;50.958;10.994;2023-03-02T06:42:57;99193.69;;;-3.07;82.80
29907;BME280;16776;50.958;10.994;2023-03-02T06:45:24;99193.09;;;-3.00;83.09
29907;BME280;16776;50.958;10.994;2023-03-02T06:47:51;99187.53;;;-2.91;82.78
29907;BME280;16776;50.958;10.994;2023-03-02T06:50:18;99189.47;;;-2.84;83.22
29907;BME280;16776;50.958;10.994;2023-03-02T06:52:45;99183.88;;;-2.76;83.49
29907;BME280;16776;50.958;10.994;2023-03-02T06:55:11;99180.03;;;-2.66;83.48
29907;BME280;16776;50.958;10.994;2023-03-02T06:57:39;99181.31;;;-2.53;84.27
29907;BME280;16776;50.958;10.994;2023-03-02T07:00:08;99185.84;;;-2.43;83.74
29907;BME280;16776;50.958;10.994;2023-03-02T07:02:38;99182.91;;;-2.32;84.09
29907;BME280;16776;50.958;10.994;2023-03-02T07:05:06;99176.53;;;-2.21;84.21
29907;BME280;16776;50.958;10.994;2023-03-02T07:07:32;99171.03;;;-2.09;84.43
29907;BME280;16776;50.958;10.994;2023-03-02T07:09:59;99184.09;;;-1.95;84.40
29907;BME280;16776;50.958;10.994;2023-03-02T07:12:25;99187.91;;;-1.81;84.31
29907;BME280;16776;50.958;10.994;2023-03-02T07:14:53;99176.56;;;-1.67;85.02
29907;BME280;16776;50.958;10.994;2023-03-02T07:17:20;99181.16;;;-1.54;85.06
29907;BME280;16776;50.958;10.994;2023-03-02T07:19:47;99183.31;;;-1.39;84.58
29907;BME280;16776;50.958;10.994;2023-03-02T07:22:13;99184.47;;;-1.28;84.14
29907;BME280;16776;50.958;10.994;2023-03-02T07:24:40;99177.16;;;-1.19;84.22
29907;BME280;16776;50.958;10.994;2023-03-02T07:27:06;99178.28;;;-1.09;84.67
29907;BME280;16776;50.958;10.994;2023-03-02T07:29:33;99184.50;;;-0.98;84.37
29907;BME280;16776;50.958;10.994;2023-03-02T07:32:01;99174.69;;;-0.87;84.89
29907;BME280;16776;50.958;10.994;2023-03-02T07:34:27;99180.03;;;-0.77;84.78
29907;BME280;16776;50.958;10.994;2023-03-02T07:36:54;99177.91;;;-0.62;85.53
29907;BME280;16776;50.958;10.994;2023-03-02T07:39:21;99182.53;;;-0.45;85.58
29907;BME280;16776;50.958;10.994;2023-03-02T07:41:48;99182.19;;;-0.28;85.82
29907;BME280;16776;50.958;10.994;2023-03-02T07:44:15;99181.72;;;-0.11;85.11
29907;BME280;16776;50.958;10.994;2023-03-02T07:46:41;99181.31;;;0.05;85.91
29907;BME280;16776;50.958;10.994;2023-03-02T07:49:12;99182.59;;;0.23;85.69
29907;BME280;16776;50.958;10.994;2023-03-02T07:51:38;99181.22;;;0.38;85.89
29907;BME280;16776;50.958;10.994;2023-03-02T07:54:05;99177.34;;;0.53;86.00
29907;BME280;16776;50.958;10.994;2023-03-02T07:56:31;99184.50;;;0.71;86.02
29907;BME280;16776;50.958;10.994;2023-03-02T07:58:58;99180.63;;;0.87;86.22
29907;BME280;16776;50.958;10.994;2023-03-02T08:01:24;99170.00;;;1.04;86.16
29907;BME280;16776;50.958;10.994;2023-03-02T08:03:51;99172.09;;;1.24;86.54
29907;BME280;16776;50.958;10.994;2023-03-02T08:06:21;99168.28;;;1.46;86.94
29907;BME280;16776;50.958;10.994;2023-03-02T08:08:48;99161.03;;;1.67;86.73
29907;BME280;16776;50.958;10.994;2023-03-02T08:11:16;99148.56;;;1.80;86.12
29907;BME280;16776;50.958;10.994;2023-03-02T08:13:44;99167.59;;;2.05;85.51
29907;BME280;16776;50.958;10.994;2023-03-02T08:16:13;99164.50;;;2.23;85.91
29907;BME280;16776;50.958;10.994;2023-03-02T08:18:41;99170.63;;;2.37;85.67
29907;BME280;16776;50.958;10.994;2023-03-02T08:21:12;99164.97;;;2.56;85.71
29907;BME280;16776;50.958;10.994;2023-03-02T08:23:40;99166.91;;;2.73;85.29
29907;BME280;16776;50.958;10.994;2023-03-02T08:26:07;99165.38;;;2.85;85.07
29907;BME280;16776;50.958;10.994;2023-03-02T08:28:34;99164.66;;;2.97;85.08
29907;BME280;16776;50.958;10.994;2023-03-02T08:31:02;99163.06;;;3.05;84.90
29907;BME280;16776;50.958;10.994;2023-03-02T08:33:29;99157.22;;;3.12;83.88
29907;BME280;16776;50.958;10.994;2023-03-02T08:35:57;99164.94;;;3.21;84.70
29907;BME280;16776;50.958;10.994;2023-03-02T08:38:25;99168.44;;;3.29;84.10
29907;BME280;16776;50.958;10.994;2023-03-02T08:40:53;99159.25;;;3.40;84.15
29907;BME280;16776;50.958;10.994;2023-03-02T08:43:21;99155.97;;;3.51;85.02
29907;BME280;16776;50.958;10.994;2023-03-02T08:45:49;99152.72;;;3.67;84.74
29907;BME280;16776;50.958;10.994;2023-03-02T08:48:17;99147.75;;;3.80;84.55
29907;BME280;16776;50.958;10.994;2023-03-02T08:50:43;99141.94;;;3.95;83.99
29907;BME280;16776;50.958;10.994;2023-03-02T08:53:10;99143.72;;;4.05;82.92
29907;BME280;16776;50.958;10.994;2023-03-02T08:55:37;99142.88;;;4.06;82.51
29907;BME280;16776;50.958;10.994;2023-03-02T08:58:04;99136.06;;;4.05;82.22
29907;BME280;16776;50.958;10.994;2023-03-02T09:00:31;99136.06;;;4.02;82.46
29907;BME280;16776;50.958;10.994;2023-03-02T09:03:00;99131.00;;;4.07;82.89
29907;BME280;16776;50.958;10.994;2023-03-02T09:05:27;99129.31;;;4.09;83.03
29907;BME280;16776;50.958;10.994;2023-03-02T09:07:54;99126.00;;;4.20;83.96
29907;BME280;16776;50.958;10.994;2023-03-02T09:10:20;99135.44;;;4.37;83.54
29907;BME280;16776;50.958;10.994;2023-03-02T09:12:47;99127.03;;;4.54;83.51
29907;BME280;16776;50.958;10.994;2023-03-02T09:15:17;99127.16;;;4.76;83.54
29907;BME280;16776;50.958;10.994;2023-03-02T09:17:43;99118.72;;;4.90;83.68
29907;BME280;16776;50.958;10.994;2023-03-02T09:20:10;99121.31;;;5.05;83.62
29907;BME280;16776;50.958;10.994;2023-03-02T09:22:37;99119.69;;;5.20;83.27
29907;BME280;16776;50.958;10.994;2023-03-02T09:25:04;99119.72;;;5.35;83.04
29907;BME280;16776;50.958;10.994;2023-03-02T09:27:31;99118.06;;;5.49;82.82
29907;BME280;16776;50.958;10.994;2023-03-02T09:29:58;99120.63;;;5.61;82.93
29907;BME280;16776;50.958;10.994;2023-03-02T09:32:26;99121.47;;;5.77;82.98
29907;BME280;16776;50.958;10.994;2023-03-02T09:34:52;99126.59;;;5.86;81.99
29907;BME280;16776;50.958;10.994;2023-03-02T09:37:19;99129.16;;;5.97;82.60
29907;BME280;16776;50.958;10.994;2023-03-02T09:39:45;99126.59;;;6.06;82.74
29907;BME280;16776;50.958;10.994;2023-03-02T09:42:24;99119.75;;;6.18;81.73
29907;BME280;16776;50.958;10.994;2023-03-02T09:45:02;99123.13;;;6.26;82.02
29907;BME280;16776;50.958;10.994;2023-03-02T09:47:39;99124.84;;;6.37;82.23
29907;BME280;16776;50.958;10.994;2023-03-02T09:50:24;99133.31;;;6.52;82.94
29907;BME280;16776;50.958;10.994;2023-03-02T09:53:00;99123.94;;;6.60;81.32
29907;BME280;16776;50.958;10.994;2023-03-02T09:55:32;99117.09;;;6.69;81.85
29907;BME280;16776;50.958;10.994;2023-03-02T09:58:02;99119.63;;;6.79;81.93
29907;BME280;16776;50.958;10.994;2023-03-02T10:00:33;99119.63;;;6.88;81.80
29907;BME280;16776;50.958;10.994;2023-03-02T10:03:03;99123.78;;;7.09;82.68
29907;BME280;16776;50.958;10.994;2023-03-02T10:05:34;99123.72;;;7.18;82.96
29907;BME280;16776;50.958;10.994;2023-03-02T10:08:04;99121.16;;;7.18;82.46
29907;BME280;16776;50.958;10.994;2023-03-02T10:10:38;99118.53;;;7.30;81.16
29907;BME280;16776;50.958;10.994;2023-03-02T10:13:15;99121.09;;;7.35;80.84
29907;BME280;16776;50.958;10.994;2023-03-02T10:15:53;99113.41;;;7.33;80.41
29907;BME280;16776;50.958;10.994;2023-03-02T10:18:27;99111.66;;;7.35;81.17
29907;BME280;16776;50.958;10.994;2023-03-02T10:21:00;99115.97;;;7.35;80.70
29907;BME280;16776;50.958;10.994;2023-03-02T10:23:43;99113.38;;;7.39;80.21
29907;BME280;16776;50.958;10.994;2023-03-02T10:26:22;99110.81;;;7.41;80.39
29907;BME280;16776;50.958;10.994;2023-03-02T10:28:57;99093.72;;;7.35;81.33
29907;BME280;16776;50.958;10.994;2023-03-02T10:31:30;99112.44;;;7.53;80.96
29907;BME280;16776;50.958;10.994;2023-03-02T10:33:59;99114.91;;;7.63;80.79
29907;BME280;16776;50.958;10.994;2023-03-02T10:36:28;99108.03;;;7.73;80.68
29907;BME280;16776;50.958;10.994;2023-03-02T10:38:56;99112.25;;;7.78;80.64
29907;BME280;16776;50.958;10.994;2023-03-02T10:41:27;99111.34;;;7.82;80.92
29907;BME280;16776;50.958;10.994;2023-03-02T10:43:58;99113.88;;;7.87;80.54
29907;BME280;16776;50.958;10.994;2023-03-02T10:46:37;99112.91;;;8.00;80.71
29907;BME280;16776;50.958;10.994;2023-03-02T10:49:22;99105.13;;;8.09;81.42
29907;BME280;16776;50.958;10.994;2023-03-02T10:51:54;99111.06;;;8.19;81.11
29907;BME280;16776;50.958;10.994;2023-03-02T10:54:24;99115.25;;;8.26;80.90
29907;BME280;16776;50.958;10.994;2023-03-02T10:56:54;99110.91;;;8.36;81.03
29907;BME280;16776;50.958;10.994;2023-03-02T10:59:32;99109.06;;;8.50;80.67
29907;BME280;16776;50.958;10.994;2023-03-02T11:02:14;99104.66;;;8.58;79.58
29907;BME280;16776;50.958;10.994;2023-03-02T11:04:43;99096.03;;;8.63;80.00
29907;BME280;16776;50.958;10.994;2023-03-02T11:07:15;99087.38;;;8.74;79.80
29907;BME280;16776;50.958;10.994;2023-03-02T11:09:42;99086.44;;;8.79;80.29
29907;BME280;16776;50.958;10.994;2023-03-02T11:12:14;99087.13;;;8.93;80.46
29907;BME280;16776;50.958;10.994;2023-03-02T11:14:41;99076.78;;;8.99;80.55
29907;BME280;16776;50.958;10.994;2023-03-02T11:17:29;99069.66;;;9.18;80.22
29907;BME280;16776;50.958;10.994;2023-03-02T11:20:00;99071.38;;;9.19;79.08
29907;BME280;16776;50.958;10.994;2023-03-02T11:22:34;99068.69;;;9.27;79.31
29907;BME280;16776;50.958;10.994;2023-03-02T11:25:07;99062.66;;;9.29;79.23
29907;BME280;16776;50.958;10.994;2023-03-02T11:27:39;99065.19;;;9.32;79.18
29907;BME280;16776;50.958;10.994;2023-03-02T11:30:12;99059.97;;;9.37;78.66
29907;BME280;16776;50.958;10.994;2023-03-02T11:32:46;99052.25;;;9.37;79.21
29907;BME280;16776;50.958;10.994;2023-03-02T11:35:27;99046.19;;;9.44;79.17
29907;BME280;16776;50.958;10.994;2023-03-02T11:38:03;99053.81;;;9.50;78.40
29907;BME280;16776;50.958;10.994;2023-03-02T11:40:40;99047.81;;;9.50;78.50
29907;BME280;16776;50.958;10.994;2023-03-02T11:43:10;99040.09;;;9.51;78.92
29907;BME280;16776;50.958;10.994;2023-03-02T11:45:41;99048.53;;;9.59;78.48
29907;BME280;16776;50.958;10.994;2023-03-02T11:48:16;99044.94;;;9.68;78.50
29907;BME280;16776;50.958;10.994;2023-03-02T11:50:53;99040.53;;;9.74;78.91
29907;BME280;16776;50.958;10.994;2023-03-02T11:53:21;99028.53;;;9.76;78.38
29907;BME280;16776;50.958;10.994;2023-03-02T11:55:52;99028.34;;;9.85;78.05
29907;BME280;16776;50.958;10.994;2023-03-02T11:58:20;99020.56;;;9.90;78.20
29907;BME280;16776;50.958;10.994;2023-03-02T12:00:48;99016.19;;;9.95;77.95
29907;BME280;16776;50.958;10.994;2023-03-02T12:03:22;99015.13;;;10.05;78.14
29907;BME280;16776;50.958;10.994;2023-03-02T12:06:02;99014.13;;;10.14;78.66
29907;BME280;16776;50.958;10.994;2023-03-02T12:08:37;99003.00;;;10.12;77.16
29907;BME280;16776;50.958;10.994;2023-03-02T12:11:04;99002.88;;;10.18;79.49
29907;BME280;16776;50.958;10.994;2023-03-02T12:13:33;99002.13;;;10.13;77.73
29907;BME280;16776;50.958;10.994;2023-03-02T12:16:00;98995.16;;;10.18;77.04
29907;BME280;16776;50.958;10.994;2023-03-02T12:18:42;98992.41;;;10.27;76.53
29907;BME280;16776;50.958;10.994;2023-03-02T12:21:13;98983.94;;;10.22;75.84
29907;BME280;16776;50.958;10.994;2023-03-02T12:23:57;98975.41;;;10.18;77.55
29907;BME280;16776;50.958;10.994;2023-03-02T12:26:28;98983.00;;;10.24;76.58
29907;BME280;16776;50.958;10.994;2023-03-02T12:29:00;98974.41;;;10.27;75.98
29907;BME280;16776;50.958;10.994;2023-03-02T12:31:39;98974.28;;;10.32;76.34
29907;BME280;16776;50.958;10.994;2023-03-02T12:34:24;98959.81;;;10.26;76.61
29907;BME280;16776;50.958;10.994;2023-03-02T12:36:55;98969.38;;;10.21;74.56
29907;BME280;16776;50.958;10.994;2023-03-02T12:39:31;98965.19;;;10.15;74.61
29907;BME280;16776;50.958;10.994;2023-03-02T12:42:17;98965.25;;;10.12;75.29
29907;BME280;16776;50.958;10.994;2023-03-02T12:45:00;98956.78;;;10.06;74.03
29907;BME280;16776;50.958;10.994;2023-03-02T12:47:29;98954.41;;;9.97;75.07
29907;BME280;16776;50.958;10.994;2023-03-02T12:49:58;98949.25;;;9.97;74.31
29907;BME280;16776;50.958;10.994;2023-03-02T12:52:29;98950.22;;;9.91;74.26
29907;BME280;16776;50.958;10.994;2023-03-02T12:55:01;98950.25;;;9.90;74.58
29907;BME280;16776;50.958;10.994;2023-03-02T12:57:28;98947.84;;;9.80;73.84
29907;BME280;16776;50.958;10.994;2023-03-02T12:59:56;98941.19;;;9.70;73.93
29907;BME280;16776;50.958;10.994;2023-03-02T13:02:25;98953.94;;;9.75;73.43